createdAt,value
2022-10-09T00:01:39.822Z,5.93
2022-10-09T00:05:41.906Z,5.92
2022-10-09T00:09:44.058Z,5.93
2022-10-09T00:13:46.347Z,5.96
2022-10-09T00:17:48.596Z,5.95
2022-10-09T00:21:50.673Z,6.00
2022-10-09T00:25:58.362Z,5.95
2022-10-09T00:30:00.369Z,5.92
2022-10-09T00:34:02.397Z,5.70
2022-10-09T00:38:04.494Z,5.56
2022-10-09T00:42:06.505Z,5.64
2022-10-09T00:46:18.854Z,5.53
2022-10-09T00:50:28.155Z,5.40
2022-10-09T00:54:32.746Z,5.27
2022-10-09T00:58:34.830Z,5.29
2022-10-09T01:02:37.717Z,5.36
2022-10-09T01:06:48.988Z,5.49
2022-10-09T01:11:14.288Z,5.54
2022-10-09T01:15:24.583Z,5.61
2022-10-09T01:19:47.365Z,5.37
2022-10-09T01:23:58.609Z,5.21
2022-10-09T01:28:03.661Z,5.27
2022-10-09T01:32:09.242Z,5.28
2022-10-09T01:36:11.492Z,5.24
2022-10-09T01:40:16.277Z,5.17
2022-10-09T01:44:24.219Z,5.11
2022-10-09T01:48:27.648Z,5.08
2022-10-09T01:52:41.105Z,5.15
2022-10-09T01:56:47.460Z,5.16
2022-10-09T02:01:04.821Z,5.19
2022-10-09T02:05:09.468Z,5.01
2022-10-09T02:09:14.057Z,4.94
2022-10-09T02:13:16.152Z,4.94
2022-10-09T02:17:25.438Z,4.91
2022-10-09T02:21:39.803Z,4.82
2022-10-09T02:25:41.903Z,4.88
2022-10-09T02:29:45.438Z,4.84
2022-10-09T02:33:58.334Z,4.81
2022-10-09T02:38:00.370Z,4.77
2022-10-09T02:42:02.937Z,4.64
2022-10-09T02:46:05.143Z,4.40
2022-10-09T02:50:08.087Z,4.35
2022-10-09T02:54:10.260Z,4.41
2022-10-09T02:58:12.331Z,4.47
2022-10-09T03:02:14.474Z,4.48
2022-10-09T03:06:22.545Z,4.42
2022-10-09T03:10:24.783Z,4.47
2022-10-09T03:14:26.827Z,4.48
2022-10-09T03:18:28.896Z,4.40
2022-10-09T03:22:30.899Z,4.37
2022-10-09T03:26:33.270Z,4.44
2022-10-09T03:30:35.258Z,4.48
2022-10-09T03:34:37.290Z,4.43
2022-10-09T03:38:39.885Z,4.40
2022-10-09T03:42:41.858Z,4.41
2022-10-09T03:46:43.977Z,4.40
2022-10-09T03:50:46.064Z,4.30
2022-10-09T03:54:48.022Z,4.23
2022-10-09T03:58:49.994Z,4.11
2022-10-09T04:02:52.622Z,3.96
2022-10-09T04:06:54.927Z,3.94
2022-10-09T04:11:01.099Z,3.99
2022-10-09T04:15:04.015Z,4.04
2022-10-09T04:19:06.017Z,4.11
2022-10-09T04:23:08.003Z,4.14
2022-10-09T04:27:10.020Z,4.10
2022-10-09T04:31:12.058Z,3.91
2022-10-09T04:35:14.393Z,3.81
2022-10-09T04:39:16.439Z,3.89
2022-10-09T04:43:18.454Z,3.86
2022-10-09T04:47:20.442Z,3.83
2022-10-09T04:51:22.441Z,3.92
2022-10-09T04:55:24.533Z,3.98
2022-10-09T04:59:26.572Z,3.94
2022-10-09T05:03:28.581Z,3.83
2022-10-09T05:07:30.626Z,3.83
2022-10-09T05:11:32.891Z,3.82
2022-10-09T05:15:37.781Z,3.75
2022-10-09T05:19:39.840Z,3.74
2022-10-09T05:23:42.071Z,3.66
2022-10-09T05:27:44.081Z,3.75
2022-10-09T05:31:49.500Z,3.84
2022-10-09T05:35:52.699Z,3.77
2022-10-09T05:39:54.727Z,3.74
2022-10-09T05:44:01.437Z,3.66
2022-10-09T05:48:03.689Z,3.54
2022-10-09T05:52:05.676Z,3.64
2022-10-09T05:56:18.468Z,3.74
2022-10-09T06:00:20.533Z,3.87
2022-10-09T06:04:24.160Z,3.98
2022-10-09T06:08:26.327Z,4.07
2022-10-09T06:12:28.301Z,4.09
2022-10-09T06:16:36.403Z,4.18
2022-10-09T06:20:38.434Z,4.27
2022-10-09T06:24:40.431Z,4.37
2022-10-09T06:28:43.625Z,4.45
2022-10-09T06:32:45.716Z,4.59
2022-10-09T06:36:47.790Z,4.67
2022-10-09T06:40:49.782Z,4.73
2022-10-09T06:44:51.762Z,4.81
2022-10-09T06:48:54.107Z,4.91
2022-10-09T06:52:56.751Z,4.96
2022-10-09T06:56:58.755Z,5.07
2022-10-09T07:01:11.426Z,5.18
2022-10-09T07:05:13.622Z,5.30
2022-10-09T07:09:16.373Z,5.43
2022-10-09T07:13:18.438Z,5.58
2022-10-09T07:17:20.419Z,5.72
2022-10-09T07:21:23.953Z,5.89
2022-10-09T07:25:26.016Z,6.04
2022-10-09T07:29:28.104Z,6.27
2022-10-09T07:33:30.225Z,6.55
2022-10-09T07:37:32.306Z,6.72
2022-10-09T07:41:34.791Z,6.91
2022-10-09T07:45:36.809Z,7.12
2022-10-09T07:49:38.859Z,7.31
2022-10-09T07:53:41.071Z,7.52
2022-10-09T07:57:43.058Z,7.82
2022-10-09T08:01:45.145Z,8.12
2022-10-09T08:05:57.036Z,8.41
2022-10-09T08:09:59.015Z,8.61
2022-10-09T08:14:01.228Z,8.83
2022-10-09T08:18:03.311Z,9.06
2022-10-09T08:22:05.321Z,9.30
2022-10-09T08:26:19.980Z,9.53
2022-10-09T08:30:22.023Z,9.78
2022-10-09T08:34:24.484Z,10.04
2022-10-09T08:38:46.167Z,10.28
2022-10-09T08:43:05.096Z,10.52
2022-10-09T08:47:23.366Z,10.73
2022-10-09T08:51:34.615Z,10.91
2022-10-09T08:55:51.081Z,11.08
2022-10-09T08:59:53.129Z,11.22
2022-10-09T09:04:16.557Z,11.38
2022-10-09T09:08:30.345Z,11.54
2022-10-09T09:12:43.141Z,11.71
2022-10-09T09:16:51.150Z,11.83
2022-10-09T09:20:54.004Z,11.97
2022-10-09T09:24:58.203Z,12.11
2022-10-09T09:29:04.824Z,12.24
2022-10-09T09:33:22.248Z,12.33
2022-10-09T09:37:24.376Z,12.40
2022-10-09T09:41:28.288Z,12.47
2022-10-09T09:45:30.465Z,12.55
2022-10-09T09:49:32.480Z,12.69
2022-10-09T09:53:41.692Z,12.77
2022-10-09T09:57:45.345Z,12.86
2022-10-09T10:01:47.429Z,12.98
2022-10-09T10:05:49.785Z,13.07
2022-10-09T10:10:02.256Z,13.21
2022-10-09T10:14:14.729Z,13.32
2022-10-09T10:18:18.840Z,13.43
2022-10-09T10:22:26.643Z,13.49
2022-10-09T10:26:39.796Z,13.53
2022-10-09T10:30:44.311Z,13.68
2022-10-09T10:35:01.466Z,13.79
2022-10-09T10:39:18.284Z,13.92
2022-10-09T10:43:30.914Z,14.01
2022-10-09T10:47:41.177Z,14.08
2022-10-09T10:51:49.494Z,14.19
2022-10-09T10:56:04.142Z,14.32
2022-10-09T11:00:09.473Z,14.48
2022-10-09T11:04:30.043Z,14.62
2022-10-09T11:08:56.996Z,14.78
2022-10-09T11:13:27.395Z,14.84
2022-10-09T11:17:35.220Z,14.95
2022-10-09T11:21:49.425Z,15.02
2022-10-09T11:26:10.200Z,15.08
2022-10-09T11:30:18.026Z,15.18
2022-10-09T11:34:26.379Z,15.27
2022-10-09T11:38:33.379Z,15.34
2022-10-09T11:42:35.640Z,15.40
2022-10-09T11:47:14.973Z,15.46
2022-10-09T11:51:28.065Z,15.50
2022-10-09T11:55:32.572Z,15.53
2022-10-09T11:59:37.683Z,15.60
2022-10-09T12:03:40.660Z,15.64
2022-10-09T12:07:42.974Z,15.73
2022-10-09T12:12:07.247Z,15.68
2022-10-09T12:16:29.779Z,15.78
2022-10-09T12:20:32.356Z,15.84
2022-10-09T12:24:40.903Z,15.88
2022-10-09T12:28:51.143Z,15.83
2022-10-09T12:33:07.430Z,15.86
2022-10-09T12:37:21.100Z,15.95
2022-10-09T12:41:31.421Z,15.99
2022-10-09T12:45:33.860Z,16.04
2022-10-09T12:49:36.237Z,16.08
2022-10-09T12:53:47.221Z,16.15
2022-10-09T12:57:49.914Z,16.13
2022-10-09T13:01:56.980Z,16.23
2022-10-09T13:05:59.868Z,16.32
2022-10-09T13:10:08.050Z,16.37
2022-10-09T13:14:33.321Z,16.38
2022-10-09T13:18:37.155Z,16.42
2022-10-09T13:22:39.545Z,16.39
2022-10-09T13:26:43.855Z,16.43
2022-10-09T13:30:46.005Z,16.50
2022-10-09T13:34:48.694Z,16.50
2022-10-09T13:38:50.711Z,16.52
2022-10-09T13:42:55.612Z,16.58
2022-10-09T13:46:57.728Z,16.60
2022-10-09T13:51:00.215Z,16.58
2022-10-09T13:55:02.230Z,16.53
2022-10-09T13:59:04.470Z,16.49
2022-10-09T14:03:06.484Z,16.50
2022-10-09T14:07:08.696Z,16.50
2022-10-09T14:11:10.802Z,16.52
2022-10-09T14:15:12.802Z,16.51
2022-10-09T14:19:14.788Z,16.52
2022-10-09T14:23:16.812Z,16.50
2022-10-09T14:27:18.807Z,16.48
2022-10-09T14:31:21.383Z,16.46
2022-10-09T14:35:23.858Z,16.40
2022-10-09T14:39:26.057Z,16.39
2022-10-09T14:43:28.164Z,16.35
2022-10-09T14:47:30.210Z,16.28
2022-10-09T14:51:36.656Z,16.25
2022-10-09T14:55:38.890Z,16.22
2022-10-09T14:59:40.962Z,16.19
2022-10-09T15:03:43.324Z,16.15
2022-10-09T15:07:45.347Z,16.11
2022-10-09T15:11:47.392Z,16.07
2022-10-09T15:15:49.428Z,16.02
2022-10-09T15:19:53.848Z,15.98
2022-10-09T15:23:58.404Z,15.93
2022-10-09T15:28:01.852Z,15.86
2022-10-09T15:32:03.841Z,15.82
2022-10-09T15:36:05.856Z,15.78
2022-10-09T15:40:08.230Z,15.73
2022-10-09T15:44:17.446Z,15.64
2022-10-09T15:48:24.593Z,15.55
2022-10-09T15:52:26.628Z,15.43
2022-10-09T15:56:29.751Z,15.33
2022-10-09T16:00:39.450Z,15.23
2022-10-09T16:04:41.458Z,15.09
2022-10-09T16:08:44.130Z,14.99
2022-10-09T16:12:46.142Z,14.90
2022-10-09T16:16:49.807Z,14.79
2022-10-09T16:20:51.969Z,14.65
2022-10-09T16:24:54.016Z,14.53
2022-10-09T16:28:56.299Z,14.39
2022-10-09T16:32:59.112Z,14.24
2022-10-09T16:37:02.222Z,14.09
2022-10-09T16:41:08.579Z,13.93
2022-10-09T16:45:10.940Z,13.76
2022-10-09T16:49:19.969Z,13.60
2022-10-09T16:53:24.937Z,13.41
2022-10-09T16:57:27.000Z,13.21
2022-10-09T17:01:29.983Z,13.02
2022-10-09T17:05:32.034Z,12.81
2022-10-09T17:09:36.597Z,12.65
2022-10-09T17:13:39.757Z,12.53
2022-10-09T17:17:41.882Z,12.47
2022-10-09T17:21:43.991Z,12.39
2022-10-09T17:25:46.089Z,12.30
2022-10-09T17:29:48.116Z,12.23
2022-10-09T17:33:57.615Z,12.14
2022-10-09T17:37:59.642Z,12.00
2022-10-09T17:42:01.636Z,11.83
2022-10-09T17:46:04.023Z,11.75
2022-10-09T17:50:06.723Z,11.69
2022-10-09T17:54:13.851Z,11.62
2022-10-09T17:58:16.875Z,11.54
2022-10-09T18:02:18.929Z,11.52
2022-10-09T18:06:24.874Z,11.50
2022-10-09T18:10:26.901Z,11.42
2022-10-09T18:14:28.875Z,11.24
2022-10-09T18:18:30.849Z,11.09
2022-10-09T18:22:35.838Z,10.94
2022-10-09T18:26:38.235Z,10.86
2022-10-09T18:30:46.012Z,10.74
2022-10-09T18:34:48.154Z,10.61
2022-10-09T18:38:55.346Z,10.50
2022-10-09T18:42:57.454Z,10.49
2022-10-09T18:46:59.974Z,10.43
2022-10-09T18:51:02.851Z,10.32
2022-10-09T18:55:06.845Z,10.13
2022-10-09T18:59:13.756Z,9.95
2022-10-09T19:03:15.802Z,9.88
2022-10-09T19:07:17.780Z,9.77
2022-10-09T19:11:19.774Z,9.66
2022-10-09T19:15:21.969Z,9.63
2022-10-09T19:19:23.930Z,9.55
2022-10-09T19:23:25.921Z,9.45
2022-10-09T19:27:28.379Z,9.29
2022-10-09T19:31:31.903Z,9.26
2022-10-09T19:35:34.110Z,9.20
2022-10-09T19:39:36.161Z,9.19
2022-10-09T19:43:38.950Z,9.21
2022-10-09T19:47:40.964Z,9.20
2022-10-09T19:51:43.054Z,9.23
2022-10-09T19:55:45.051Z,9.27
2022-10-09T19:59:47.890Z,9.20
2022-10-09T20:03:55.423Z,9.23
2022-10-09T20:07:57.486Z,9.22
2022-10-09T20:11:59.512Z,9.21
2022-10-09T20:16:03.367Z,9.18
2022-10-09T20:20:06.199Z,9.15
2022-10-09T20:24:08.463Z,9.16
2022-10-09T20:28:10.539Z,9.14
2022-10-09T20:32:13.048Z,9.16
2022-10-09T20:36:19.508Z,9.22
2022-10-09T20:40:21.698Z,9.25
2022-10-09T20:44:23.710Z,9.28
2022-10-09T20:48:25.838Z,9.24
2022-10-09T20:52:27.843Z,9.24
2022-10-09T20:56:31.898Z,9.21
2022-10-09T21:00:34.034Z,9.16
2022-10-09T21:04:36.072Z,9.16
2022-10-09T21:08:38.851Z,9.21
2022-10-09T21:12:41.231Z,9.22
2022-10-09T21:16:43.310Z,9.19
2022-10-09T21:20:47.976Z,9.16
2022-10-09T21:24:49.943Z,9.14
2022-10-09T21:28:56.736Z,9.06
2022-10-09T21:33:01.212Z,8.97
2022-10-09T21:41:25.984Z,8.80
2022-10-09T21:45:28.047Z,8.64
2022-10-09T21:49:30.091Z,8.46
2022-10-09T21:53:32.221Z,8.37
2022-10-09T21:57:34.373Z,8.33
2022-10-09T22:01:36.609Z,8.23
2022-10-09T22:05:40.590Z,8.23
2022-10-09T22:09:42.559Z,8.22
2022-10-09T22:13:44.702Z,8.17
2022-10-09T22:17:46.692Z,8.19
2022-10-09T22:21:49.362Z,8.13
2022-10-09T22:26:00.122Z,8.10
2022-10-09T22:30:02.550Z,8.03
2022-10-09T22:34:04.670Z,7.94
2022-10-09T22:38:06.654Z,7.95
2022-10-09T22:42:08.658Z,7.85
2022-10-09T22:46:14.309Z,7.78
2022-10-09T22:50:16.347Z,7.72
2022-10-09T22:54:19.021Z,7.65
2022-10-09T22:58:21.011Z,7.59
2022-10-09T23:02:22.988Z,7.55
2022-10-09T23:06:24.999Z,7.41
2022-10-09T23:10:26.966Z,7.35
2022-10-09T23:14:28.981Z,7.37
2022-10-09T23:18:31.254Z,7.37
2022-10-09T23:22:33.267Z,7.45
2022-10-09T23:26:36.435Z,7.50
2022-10-09T23:30:38.480Z,7.63
2022-10-09T23:34:40.524Z,7.65
2022-10-09T23:38:43.004Z,7.58
2022-10-09T23:42:45.016Z,7.54
2022-10-09T23:46:47.086Z,7.40
2022-10-09T23:50:50.673Z,7.22
2022-10-09T23:54:52.681Z,7.20
2022-10-09T23:58:56.289Z,7.34
